sensor_id;sensor_type;location;lat;lon;timestamp;P1;durP1;ratioP1;P2;durP2;ratioP2
7432;SDS011;32233;49.500;7.764;2022-09-21T00:01:47;4.47;;;2.17;;
7432;SDS011;32233;49.500;7.764;2022-09-21T00:04:13;5.57;;;2.20;;
7432;SDS011;32233;49.500;7.764;2022-09-21T00:06:40;4.20;;;2.23;;
7432;SDS011;32233;49.500;7.764;2022-09-21T00:09:06;2.30;;;2.07;;
7432;SDS011;32233;49.500;7.764;2022-09-21T00:11:34;4.13;;;1.80;;
7432;SDS011;32233;49.500;7.764;2022-09-21T00:14:02;3.90;;;2.27;;
7432;SDS011;32233;49.500;7.764;2022-09-21T00:16:30;3.67;;;2.37;;
7432;SDS011;32233;49.500;7.764;2022-09-21T00:18:57;2.73;;;1.67;;
7432;SDS011;32233;49.500;7.764;2022-09-21T00:21:24;3.60;;;2.03;;
7432;SDS011;32233;49.500;7.764;2022-09-21T00:23:50;4.67;;;2.00;;
7432;SDS011;32233;49.500;7.764;2022-09-21T00:26:18;3.30;;;2.00;;
7432;SDS011;32233;49.500;7.764;2022-09-21T00:28:45;3.83;;;1.73;;
7432;SDS011;32233;49.500;7.764;2022-09-21T00:31:13;4.83;;;2.10;;
7432;SDS011;32233;49.500;7.764;2022-09-21T00:33:40;2.17;;;1.50;;
7432;SDS011;32233;49.500;7.764;2022-09-21T00:36:08;2.83;;;1.57;;
7432;SDS011;32233;49.500;7.764;2022-09-21T00:38:35;4.47;;;1.77;;
7432;SDS011;32233;49.500;7.764;2022-09-21T00:41:01;1.80;;;1.63;;
7432;SDS011;32233;49.500;7.764;2022-09-21T00:43:28;3.43;;;2.07;;
7432;SDS011;32233;49.500;7.764;2022-09-21T00:46:03;1.80;;;1.70;;
7432;SDS011;32233;49.500;7.764;2022-09-21T00:48:30;2.10;;;1.90;;
7432;SDS011;32233;49.500;7.764;2022-09-21T00:50:58;3.73;;;1.70;;
7432;SDS011;32233;49.500;7.764;2022-09-21T00:53:26;3.23;;;2.00;;
7432;SDS011;32233;49.500;7.764;2022-09-21T00:55:54;3.23;;;1.90;;
7432;SDS011;32233;49.500;7.764;2022-09-21T00:58:23;2.03;;;1.83;;
7432;SDS011;32233;49.500;7.764;2022-09-21T01:00:53;2.37;;;1.97;;
7432;SDS011;32233;49.500;7.764;2022-09-21T01:03:20;2.50;;;2.30;;
7432;SDS011;32233;49.500;7.764;2022-09-21T01:05:46;6.87;;;2.77;;
7432;SDS011;32233;49.500;7.764;2022-09-21T01:08:13;3.43;;;2.67;;
7432;SDS011;32233;49.500;7.764;2022-09-21T01:10:52;4.17;;;2.80;;
7432;SDS011;32233;49.500;7.764;2022-09-21T01:13:35;4.47;;;2.80;;
7432;SDS011;32233;49.500;7.764;2022-09-21T01:21:07;7.00;;;2.60;;
7432;SDS011;32233;49.500;7.764;2022-09-21T01:28:50;4.43;;;2.83;;
7432;SDS011;32233;49.500;7.764;2022-09-21T01:31:23;3.57;;;3.00;;
7432;SDS011;32233;49.500;7.764;2022-09-21T01:33:51;5.80;;;2.60;;
7432;SDS011;32233;49.500;7.764;2022-09-21T01:36:19;6.27;;;2.57;;
7432;SDS011;32233;49.500;7.764;2022-09-21T01:38:51;7.47;;;2.87;;
7432;SDS011;32233;49.500;7.764;2022-09-21T01:41:19;4.23;;;2.37;;
7432;SDS011;32233;49.500;7.764;2022-09-21T01:43:49;5.03;;;2.37;;
7432;SDS011;32233;49.500;7.764;2022-09-21T01:46:17;3.53;;;2.57;;
7432;SDS011;32233;49.500;7.764;2022-09-21T01:48:49;3.53;;;2.10;;
7432;SDS011;32233;49.500;7.764;2022-09-21T01:51:17;4.73;;;2.13;;
7432;SDS011;32233;49.500;7.764;2022-09-21T01:53:50;2.33;;;1.90;;
7432;SDS011;32233;49.500;7.764;2022-09-21T01:56:21;3.00;;;1.97;;
7432;SDS011;32233;49.500;7.764;2022-09-21T01:58:50;4.27;;;1.90;;
7432;SDS011;32233;49.500;7.764;2022-09-21T02:01:19;3.27;;;2.20;;
7432;SDS011;32233;49.500;7.764;2022-09-21T02:03:56;2.63;;;2.17;;
7432;SDS011;32233;49.500;7.764;2022-09-21T02:06:24;2.77;;;2.07;;
7432;SDS011;32233;49.500;7.764;2022-09-21T02:08:52;3.57;;;2.00;;
7432;SDS011;32233;49.500;7.764;2022-09-21T02:11:18;2.00;;;1.90;;
7432;SDS011;32233;49.500;7.764;2022-09-21T02:13:45;4.23;;;2.27;;
7432;SDS011;32233;49.500;7.764;2022-09-21T02:16:24;4.47;;;2.20;;
7432;SDS011;32233;49.500;7.764;2022-09-21T02:19:08;3.33;;;1.80;;
7432;SDS011;32233;49.500;7.764;2022-09-21T02:24:12;2.50;;;2.30;;
7432;SDS011;32233;49.500;7.764;2022-09-21T02:29:24;3.50;;;2.13;;
7432;SDS011;32233;49.500;7.764;2022-09-21T02:31:54;2.20;;;2.00;;
7432;SDS011;32233;49.500;7.764;2022-09-21T02:36:51;1.80;;;1.70;;
7432;SDS011;32233;49.500;7.764;2022-09-21T02:39:28;2.00;;;1.90;;
7432;SDS011;32233;49.500;7.764;2022-09-21T02:44:29;7.17;;;2.20;;
7432;SDS011;32233;49.500;7.764;2022-09-21T02:49:30;2.33;;;2.10;;
7432;SDS011;32233;49.500;7.764;2022-09-21T02:52:00;3.17;;;1.90;;
7432;SDS011;32233;49.500;7.764;2022-09-21T02:54:29;4.27;;;1.80;;
7432;SDS011;32233;49.500;7.764;2022-09-21T02:56:56;1.87;;;1.63;;
7432;SDS011;32233;49.500;7.764;2022-09-21T02:59:23;2.03;;;1.60;;
7432;SDS011;32233;49.500;7.764;2022-09-21T03:01:49;2.43;;;1.77;;
7432;SDS011;32233;49.500;7.764;2022-09-21T03:04:16;3.93;;;1.50;;
7432;SDS011;32233;49.500;7.764;2022-09-21T03:06:43;3.40;;;1.97;;
7432;SDS011;32233;49.500;7.764;2022-09-21T03:09:09;2.57;;;1.47;;
7432;SDS011;32233;49.500;7.764;2022-09-21T03:11:35;2.03;;;1.50;;
7432;SDS011;32233;49.500;7.764;2022-09-21T03:14:02;3.10;;;1.90;;
7432;SDS011;32233;49.500;7.764;2022-09-21T03:16:34;3.80;;;1.80;;
7432;SDS011;32233;49.500;7.764;2022-09-21T03:19:01;1.90;;;1.50;;
7432;SDS011;32233;49.500;7.764;2022-09-21T03:21:27;2.97;;;1.70;;
7432;SDS011;32233;49.500;7.764;2022-09-21T03:23:54;1.70;;;1.60;;
7432;SDS011;32233;49.500;7.764;2022-09-21T03:26:21;2.43;;;1.57;;
7432;SDS011;32233;49.500;7.764;2022-09-21T03:28:48;2.37;;;1.73;;
7432;SDS011;32233;49.500;7.764;2022-09-21T03:31:15;3.10;;;1.93;;
7432;SDS011;32233;49.500;7.764;2022-09-21T03:33:41;2.70;;;2.00;;
7432;SDS011;32233;49.500;7.764;2022-09-21T03:36:08;2.90;;;1.63;;
7432;SDS011;32233;49.500;7.764;2022-09-21T03:38:35;3.87;;;1.93;;
7432;SDS011;32233;49.500;7.764;2022-09-21T03:41:02;6.87;;;1.90;;
7432;SDS011;32233;49.500;7.764;2022-09-21T03:43:29;1.60;;;1.50;;
7432;SDS011;32233;49.500;7.764;2022-09-21T03:45:56;2.57;;;1.70;;
7432;SDS011;32233;49.500;7.764;2022-09-21T03:48:23;4.50;;;2.17;;
7432;SDS011;32233;49.500;7.764;2022-09-21T03:50:49;3.00;;;1.80;;
7432;SDS011;32233;49.500;7.764;2022-09-21T03:53:15;2.47;;;2.00;;
7432;SDS011;32233;49.500;7.764;2022-09-21T03:55:42;2.13;;;1.90;;
7432;SDS011;32233;49.500;7.764;2022-09-21T03:58:09;2.63;;;2.10;;
7432;SDS011;32233;49.500;7.764;2022-09-21T04:00:35;2.50;;;1.93;;
7432;SDS011;32233;49.500;7.764;2022-09-21T04:03:01;2.23;;;1.90;;
7432;SDS011;32233;49.500;7.764;2022-09-21T04:05:28;6.00;;;2.27;;
7432;SDS011;32233;49.500;7.764;2022-09-21T04:07:54;4.20;;;2.13;;
7432;SDS011;32233;49.500;7.764;2022-09-21T04:10:22;5.47;;;2.70;;
7432;SDS011;32233;49.500;7.764;2022-09-21T04:13:00;4.33;;;2.73;;
7432;SDS011;32233;49.500;7.764;2022-09-21T04:15:27;7.77;;;2.97;;
7432;SDS011;32233;49.500;7.764;2022-09-21T04:17:54;6.83;;;2.63;;
7432;SDS011;32233;49.500;7.764;2022-09-21T04:20:21;6.07;;;2.60;;
7432;SDS011;32233;49.500;7.764;2022-09-21T04:22:47;4.70;;;2.40;;
7432;SDS011;32233;49.500;7.764;2022-09-21T04:25:14;8.47;;;3.20;;
7432;SDS011;32233;49.500;7.764;2022-09-21T04:27:40;6.37;;;2.70;;
7432;SDS011;32233;49.500;7.764;2022-09-21T04:30:08;5.23;;;2.80;;
7432;SDS011;32233;49.500;7.764;2022-09-21T04:32:35;4.43;;;2.60;;
7432;SDS011;32233;49.500;7.764;2022-09-21T04:35:01;5.93;;;3.07;;
7432;SDS011;32233;49.500;7.764;2022-09-21T04:37:27;7.67;;;3.23;;
7432;SDS011;32233;49.500;7.764;2022-09-21T04:39:54;4.67;;;3.50;;
7432;SDS011;32233;49.500;7.764;2022-09-21T04:42:21;8.13;;;4.37;;
7432;SDS011;32233;49.500;7.764;2022-09-21T04:44:47;7.90;;;4.00;;
7432;SDS011;32233;49.500;7.764;2022-09-21T04:47:13;8.23;;;3.90;;
7432;SDS011;32233;49.500;7.764;2022-09-21T04:49:40;7.57;;;3.23;;
7432;SDS011;32233;49.500;7.764;2022-09-21T04:52:06;2.87;;;2.57;;
7432;SDS011;32233;49.500;7.764;2022-09-21T04:54:33;6.53;;;3.07;;
7432;SDS011;32233;49.500;7.764;2022-09-21T04:56:59;5.10;;;2.87;;
7432;SDS011;32233;49.500;7.764;2022-09-21T04:59:25;6.83;;;2.60;;
7432;SDS011;32233;49.500;7.764;2022-09-21T05:01:52;6.50;;;2.60;;
7432;SDS011;32233;49.500;7.764;2022-09-21T05:04:18;4.57;;;2.70;;
7432;SDS011;32233;49.500;7.764;2022-09-21T05:06:45;4.97;;;2.77;;
7432;SDS011;32233;49.500;7.764;2022-09-21T05:09:11;4.80;;;2.70;;
7432;SDS011;32233;49.500;7.764;2022-09-21T05:11:56;6.43;;;2.80;;
7432;SDS011;32233;49.500;7.764;2022-09-21T05:14:23;8.77;;;2.70;;
7432;SDS011;32233;49.500;7.764;2022-09-21T05:16:49;3.43;;;2.40;;
7432;SDS011;32233;49.500;7.764;2022-09-21T05:19:16;3.87;;;2.07;;
7432;SDS011;32233;49.500;7.764;2022-09-21T05:21:42;5.77;;;2.80;;
7432;SDS011;32233;49.500;7.764;2022-09-21T05:24:08;3.17;;;2.60;;
7432;SDS011;32233;49.500;7.764;2022-09-21T05:26:36;5.23;;;2.40;;
7432;SDS011;32233;49.500;7.764;2022-09-21T05:29:02;6.30;;;2.60;;
7432;SDS011;32233;49.500;7.764;2022-09-21T05:31:48;3.73;;;2.70;;
7432;SDS011;32233;49.500;7.764;2022-09-21T05:37:03;5.47;;;2.77;;
7432;SDS011;32233;49.500;7.764;2022-09-21T05:39:31;5.07;;;2.50;;
7432;SDS011;32233;49.500;7.764;2022-09-21T05:41:58;3.27;;;2.60;;
7432;SDS011;32233;49.500;7.764;2022-09-21T05:44:24;7.27;;;4.00;;
7432;SDS011;32233;49.500;7.764;2022-09-21T05:49:25;5.50;;;4.50;;
7432;SDS011;32233;49.500;7.764;2022-09-21T05:52:02;5.00;;;4.33;;
7432;SDS011;32233;49.500;7.764;2022-09-21T05:54:39;7.53;;;4.30;;
7432;SDS011;32233;49.500;7.764;2022-09-21T05:57:13;7.53;;;4.53;;
7432;SDS011;32233;49.500;7.764;2022-09-21T06:02:25;4.63;;;4.17;;
7432;SDS011;32233;49.500;7.764;2022-09-21T06:04:55;6.83;;;4.37;;
7432;SDS011;32233;49.500;7.764;2022-09-21T06:07:22;5.37;;;4.40;;
7432;SDS011;32233;49.500;7.764;2022-09-21T06:09:49;5.00;;;4.00;;
7432;SDS011;32233;49.500;7.764;2022-09-21T06:12:15;6.13;;;3.73;;
7432;SDS011;32233;49.500;7.764;2022-09-21T06:14:42;4.77;;;4.07;;
7432;SDS011;32233;49.500;7.764;2022-09-21T06:17:09;4.77;;;4.20;;
7432;SDS011;32233;49.500;7.764;2022-09-21T06:19:35;5.63;;;4.30;;
7432;SDS011;32233;49.500;7.764;2022-09-21T06:22:02;3.93;;;3.63;;
7432;SDS011;32233;49.500;7.764;2022-09-21T06:24:28;4.57;;;4.00;;
7432;SDS011;32233;49.500;7.764;2022-09-21T06:26:55;5.00;;;3.77;;
7432;SDS011;32233;49.500;7.764;2022-09-21T06:29:21;6.73;;;3.87;;
7432;SDS011;32233;49.500;7.764;2022-09-21T06:31:49;5.40;;;3.70;;
7432;SDS011;32233;49.500;7.764;2022-09-21T06:34:16;5.30;;;4.10;;
7432;SDS011;32233;49.500;7.764;2022-09-21T06:36:43;3.43;;;3.13;;
7432;SDS011;32233;49.500;7.764;2022-09-21T06:39:11;6.00;;;3.80;;
7432;SDS011;32233;49.500;7.764;2022-09-21T06:41:37;4.47;;;3.97;;
7432;SDS011;32233;49.500;7.764;2022-09-21T06:44:08;6.33;;;4.80;;
7432;SDS011;32233;49.500;7.764;2022-09-21T06:46:34;11.57;;;7.27;;
7432;SDS011;32233;49.500;7.764;2022-09-21T06:49:01;12.00;;;7.47;;
7432;SDS011;32233;49.500;7.764;2022-09-21T06:51:27;8.70;;;7.40;;
7432;SDS011;32233;49.500;7.764;2022-09-21T06:53:54;9.27;;;5.50;;
7432;SDS011;32233;49.500;7.764;2022-09-21T06:56:21;6.43;;;5.67;;
7432;SDS011;32233;49.500;7.764;2022-09-21T06:58:48;11.33;;;7.03;;
7432;SDS011;32233;49.500;7.764;2022-09-21T07:01:14;9.37;;;6.70;;
7432;SDS011;32233;49.500;7.764;2022-09-21T07:03:41;12.60;;;7.03;;
7432;SDS011;32233;49.500;7.764;2022-09-21T07:06:09;8.37;;;6.10;;
7432;SDS011;32233;49.500;7.764;2022-09-21T07:08:41;9.17;;;6.07;;
7432;SDS011;32233;49.500;7.764;2022-09-21T07:11:27;7.80;;;6.20;;
7432;SDS011;32233;49.500;7.764;2022-09-21T07:13:54;9.43;;;4.70;;
7432;SDS011;32233;49.500;7.764;2022-09-21T07:16:21;6.30;;;5.20;;
7432;SDS011;32233;49.500;7.764;2022-09-21T07:18:48;6.13;;;5.23;;
7432;SDS011;32233;49.500;7.764;2022-09-21T07:21:15;7.97;;;5.67;;
7432;SDS011;32233;49.500;7.764;2022-09-21T07:23:42;6.57;;;5.30;;
7432;SDS011;32233;49.500;7.764;2022-09-21T07:26:09;8.37;;;5.63;;
7432;SDS011;32233;49.500;7.764;2022-09-21T07:28:36;7.20;;;5.40;;
7432;SDS011;32233;49.500;7.764;2022-09-21T07:31:06;5.33;;;4.83;;
7432;SDS011;32233;49.500;7.764;2022-09-21T07:33:33;6.57;;;4.90;;
7432;SDS011;32233;49.500;7.764;2022-09-21T07:36:01;8.40;;;5.17;;
7432;SDS011;32233;49.500;7.764;2022-09-21T07:38:35;6.07;;;4.80;;
7432;SDS011;32233;49.500;7.764;2022-09-21T07:41:02;5.40;;;4.63;;
7432;SDS011;32233;49.500;7.764;2022-09-21T07:43:29;5.87;;;4.57;;
7432;SDS011;32233;49.500;7.764;2022-09-21T07:45:55;6.80;;;4.70;;
7432;SDS011;32233;49.500;7.764;2022-09-21T07:48:22;6.53;;;4.47;;
7432;SDS011;32233;49.500;7.764;2022-09-21T07:50:49;4.60;;;4.20;;
7432;SDS011;32233;49.500;7.764;2022-09-21T07:53:15;7.27;;;4.10;;
7432;SDS011;32233;49.500;7.764;2022-09-21T07:55:43;6.63;;;4.80;;
7432;SDS011;32233;49.500;7.764;2022-09-21T07:58:09;7.93;;;4.20;;
7432;SDS011;32233;49.500;7.764;2022-09-21T08:00:54;6.40;;;4.40;;
7432;SDS011;32233;49.500;7.764;2022-09-21T08:03:21;5.50;;;4.40;;
7432;SDS011;32233;49.500;7.764;2022-09-21T08:05:47;4.83;;;4.27;;
7432;SDS011;32233;49.500;7.764;2022-09-21T08:08:13;6.30;;;3.40;;
7432;SDS011;32233;49.500;7.764;2022-09-21T08:10:42;3.50;;;3.00;;
7432;SDS011;32233;49.500;7.764;2022-09-21T08:13:08;5.10;;;3.00;;
7432;SDS011;32233;49.500;7.764;2022-09-21T08:15:34;8.00;;;3.40;;
7432;SDS011;32233;49.500;7.764;2022-09-21T08:18:15;5.77;;;2.87;;
7432;SDS011;32233;49.500;7.764;2022-09-21T08:20:43;3.83;;;2.60;;
7432;SDS011;32233;49.500;7.764;2022-09-21T08:23:09;3.53;;;2.50;;
7432;SDS011;32233;49.500;7.764;2022-09-21T08:25:36;3.90;;;2.60;;
7432;SDS011;32233;49.500;7.764;2022-09-21T08:28:03;5.13;;;2.57;;
7432;SDS011;32233;49.500;7.764;2022-09-21T08:30:35;5.83;;;2.70;;
7432;SDS011;32233;49.500;7.764;2022-09-21T08:33:01;4.80;;;2.90;;
7432;SDS011;32233;49.500;7.764;2022-09-21T08:35:28;3.23;;;2.23;;
7432;SDS011;32233;49.500;7.764;2022-09-21T08:37:55;4.50;;;1.97;;
7432;SDS011;32233;49.500;7.764;2022-09-21T08:40:21;1.63;;;1.40;;
7432;SDS011;32233;49.500;7.764;2022-09-21T08:42:51;2.40;;;1.77;;
7432;SDS011;32233;49.500;7.764;2022-09-21T08:45:20;2.30;;;1.10;;
7432;SDS011;32233;49.500;7.764;2022-09-21T08:47:48;1.93;;;1.13;;
7432;SDS011;32233;49.500;7.764;2022-09-21T08:52:44;4.13;;;1.20;;
7432;SDS011;32233;49.500;7.764;2022-09-21T08:55:16;1.50;;;1.00;;
7432;SDS011;32233;49.500;7.764;2022-09-21T08:57:43;1.97;;;0.93;;
7432;SDS011;32233;49.500;7.764;2022-09-21T09:00:14;2.30;;;0.80;;
7432;SDS011;32233;49.500;7.764;2022-09-21T09:13:07;2.43;;;0.77;;
7432;SDS011;32233;49.500;7.764;2022-09-21T09:15:44;2.13;;;0.80;;
7432;SDS011;32233;49.500;7.764;2022-09-21T09:20:39;2.70;;;0.93;;
7432;SDS011;32233;49.500;7.764;2022-09-21T09:23:40;2.73;;;1.07;;
7432;SDS011;32233;49.500;7.764;2022-09-21T09:26:01;2.77;;;0.80;;
7432;SDS011;32233;49.500;7.764;2022-09-21T09:31:00;1.90;;;1.10;;
7432;SDS011;32233;49.500;7.764;2022-09-21T09:33:37;2.00;;;0.80;;
7432;SDS011;32233;49.500;7.764;2022-09-21T09:36:08;1.73;;;0.60;;
7432;SDS011;32233;49.500;7.764;2022-09-21T09:38:37;2.40;;;0.70;;
7432;SDS011;32233;49.500;7.764;2022-09-21T09:41:09;0.83;;;0.80;;
7432;SDS011;32233;49.500;7.764;2022-09-21T09:46:25;2.27;;;0.80;;
7432;SDS011;32233;49.500;7.764;2022-09-21T09:51:25;2.80;;;0.80;;
7432;SDS011;32233;49.500;7.764;2022-09-21T09:53:52;2.97;;;0.90;;
7432;SDS011;32233;49.500;7.764;2022-09-21T09:56:22;3.03;;;0.90;;
7432;SDS011;32233;49.500;7.764;2022-09-21T09:58:51;2.93;;;1.20;;
7432;SDS011;32233;49.500;7.764;2022-09-21T10:01:35;1.23;;;0.90;;
7432;SDS011;32233;49.500;7.764;2022-09-21T10:04:36;1.77;;;1.07;;
7432;SDS011;32233;49.500;7.764;2022-09-21T10:06:55;2.30;;;1.00;;
7432;SDS011;32233;49.500;7.764;2022-09-21T10:09:26;2.93;;;1.07;;
7432;SDS011;32233;49.500;7.764;2022-09-21T10:12:00;8.80;;;1.73;;
7432;SDS011;32233;49.500;7.764;2022-09-21T10:14:31;2.63;;;1.20;;
7432;SDS011;32233;49.500;7.764;2022-09-21T10:17:00;1.37;;;1.27;;
7432;SDS011;32233;49.500;7.764;2022-09-21T10:19:28;2.17;;;1.17;;
7432;SDS011;32233;49.500;7.764;2022-09-21T10:21:56;2.37;;;1.47;;
7432;SDS011;32233;49.500;7.764;2022-09-21T10:29:29;1.77;;;1.20;;
7432;SDS011;32233;49.500;7.764;2022-09-21T10:32:03;1.70;;;1.20;;
7432;SDS011;32233;49.500;7.764;2022-09-21T10:34:30;2.93;;;1.00;;
7432;SDS011;32233;49.500;7.764;2022-09-21T10:36:58;1.30;;;0.90;;
7432;SDS011;32233;49.500;7.764;2022-09-21T10:39:26;1.97;;;1.07;;
7432;SDS011;32233;49.500;7.764;2022-09-21T10:41:55;1.90;;;0.93;;
7432;SDS011;32233;49.500;7.764;2022-09-21T10:44:25;2.50;;;0.87;;
7432;SDS011;32233;49.500;7.764;2022-09-21T10:46:52;1.60;;;0.80;;
7432;SDS011;32233;49.500;7.764;2022-09-21T10:49:20;4.10;;;0.80;;
7432;SDS011;32233;49.500;7.764;2022-09-21T10:51:48;1.23;;;1.00;;
7432;SDS011;32233;49.500;7.764;2022-09-21T10:54:20;1.90;;;1.10;;
7432;SDS011;32233;49.500;7.764;2022-09-21T10:56:51;2.80;;;1.23;;
7432;SDS011;32233;49.500;7.764;2022-09-21T11:01:45;1.73;;;0.90;;
7432;SDS011;32233;49.500;7.764;2022-09-21T11:04:13;1.67;;;1.00;;
7432;SDS011;32233;49.500;7.764;2022-09-21T11:06:43;3.27;;;1.00;;
7432;SDS011;32233;49.500;7.764;2022-09-21T11:09:15;1.53;;;1.10;;
7432;SDS011;32233;49.500;7.764;2022-09-21T11:14:33;2.93;;;1.27;;
7432;SDS011;32233;49.500;7.764;2022-09-21T11:17:12;1.87;;;0.97;;
7432;SDS011;32233;49.500;7.764;2022-09-21T11:27:38;2.70;;;1.00;;
7432;SDS011;32233;49.500;7.764;2022-09-21T11:30:12;1.03;;;0.70;;
7432;SDS011;32233;49.500;7.764;2022-09-21T11:32:46;2.20;;;0.80;;
7432;SDS011;32233;49.500;7.764;2022-09-21T11:35:27;8.63;;;4.60;;
7432;SDS011;32233;49.500;7.764;2022-09-21T11:40:28;2.63;;;1.07;;
7432;SDS011;32233;49.500;7.764;2022-09-21T11:45:31;2.13;;;0.90;;
7432;SDS011;32233;49.500;7.764;2022-09-21T11:56:12;0.60;;;0.60;;
7432;SDS011;32233;49.500;7.764;2022-09-21T11:58:44;1.23;;;0.60;;
7432;SDS011;32233;49.500;7.764;2022-09-21T12:04:16;1.67;;;0.93;;
7432;SDS011;32233;49.500;7.764;2022-09-21T12:06:48;0.97;;;0.87;;
7432;SDS011;32233;49.500;7.764;2022-09-21T12:14:41;0.90;;;0.90;;
7432;SDS011;32233;49.500;7.764;2022-09-21T12:19:44;0.83;;;0.73;;
7432;SDS011;32233;49.500;7.764;2022-09-21T12:22:18;1.20;;;0.87;;
7432;SDS011;32233;49.500;7.764;2022-09-21T12:24:47;8.17;;;4.67;;
7432;SDS011;32233;49.500;7.764;2022-09-21T12:27:23;6.57;;;5.60;;
7432;SDS011;32233;49.500;7.764;2022-09-21T12:29:51;4.83;;;2.87;;
7432;SDS011;32233;49.500;7.764;2022-09-21T12:34:55;6.20;;;4.63;;
7432;SDS011;32233;49.500;7.764;2022-09-21T12:39:57;1.13;;;0.70;;
7432;SDS011;32233;49.500;7.764;2022-09-21T12:44:55;0.63;;;0.63;;
7432;SDS011;32233;49.500;7.764;2022-09-21T12:49:54;1.90;;;0.67;;
7432;SDS011;32233;49.500;7.764;2022-09-21T12:52:25;1.07;;;0.50;;
7432;SDS011;32233;49.500;7.764;2022-09-21T12:54:55;0.80;;;0.50;;
7432;SDS011;32233;49.500;7.764;2022-09-21T12:57:27;0.97;;;0.60;;
7432;SDS011;32233;49.500;7.764;2022-09-21T13:00:20;1.63;;;0.50;;
7432;SDS011;32233;49.500;7.764;2022-09-21T13:02:53;1.93;;;0.50;;
7432;SDS011;32233;49.500;7.764;2022-09-21T13:08:03;0.40;;;0.40;;
7432;SDS011;32233;49.500;7.764;2022-09-21T13:10:46;0.40;;;0.40;;
7432;SDS011;32233;49.500;7.764;2022-09-21T13:13:31;1.93;;;0.43;;
7432;SDS011;32233;49.500;7.764;2022-09-21T13:15:58;0.77;;;0.40;;
7432;SDS011;32233;49.500;7.764;2022-09-21T13:21:13;1.00;;;0.50;;
7432;SDS011;32233;49.500;7.764;2022-09-21T13:23:40;1.03;;;0.47;;
7432;SDS011;32233;49.500;7.764;2022-09-21T13:26:08;0.67;;;0.40;;
7432;SDS011;32233;49.500;7.764;2022-09-21T13:28:58;1.10;;;0.40;;
7432;SDS011;32233;49.500;7.764;2022-09-21T13:31:29;1.50;;;0.40;;
7432;SDS011;32233;49.500;7.764;2022-09-21T13:49:55;1.00;;;0.43;;
7432;SDS011;32233;49.500;7.764;2022-09-21T13:54:54;1.60;;;0.40;;
7432;SDS011;32233;49.500;7.764;2022-09-21T14:08:25;2.67;;;0.60;;
7432;SDS011;32233;49.500;7.764;2022-09-21T14:10:50;1.33;;;0.60;;
7432;SDS011;32233;49.500;7.764;2022-09-21T14:13:29;1.00;;;0.70;;
7432;SDS011;32233;49.500;7.764;2022-09-21T14:18:42;0.93;;;0.60;;
7432;SDS011;32233;49.500;7.764;2022-09-21T14:21:12;1.40;;;0.50;;
7432;SDS011;32233;49.500;7.764;2022-09-21T14:26:31;2.27;;;0.60;;
7432;SDS011;32233;49.500;7.764;2022-09-21T14:29:04;2.27;;;0.60;;
7432;SDS011;32233;49.500;7.764;2022-09-21T14:31:33;1.03;;;0.57;;
7432;SDS011;32233;49.500;7.764;2022-09-21T14:34:02;1.20;;;0.60;;
7432;SDS011;32233;49.500;7.764;2022-09-21T14:36:47;0.67;;;0.67;;
7432;SDS011;32233;49.500;7.764;2022-09-21T14:39:16;2.20;;;0.60;;
7432;SDS011;32233;49.500;7.764;2022-09-21T14:41:44;2.13;;;0.70;;
7432;SDS011;32233;49.500;7.764;2022-09-21T14:44:19;1.63;;;0.70;;
7432;SDS011;32233;49.500;7.764;2022-09-21T15:00:23;0.60;;;0.60;;
7432;SDS011;32233;49.500;7.764;2022-09-21T15:05:36;0.97;;;0.60;;
7432;SDS011;32233;49.500;7.764;2022-09-21T15:13:58;1.40;;;0.60;;
7432;SDS011;32233;49.500;7.764;2022-09-21T15:16:39;1.33;;;0.63;;
7432;SDS011;32233;49.500;7.764;2022-09-21T15:21:53;1.37;;;0.60;;
7432;SDS011;32233;49.500;7.764;2022-09-21T15:24:24;0.60;;;0.60;;
7432;SDS011;32233;49.500;7.764;2022-09-21T15:26:52;0.80;;;0.63;;
7432;SDS011;32233;49.500;7.764;2022-09-21T15:29:23;1.53;;;0.73;;
7432;SDS011;32233;49.500;7.764;2022-09-21T15:31:50;1.27;;;0.60;;
7432;SDS011;32233;49.500;7.764;2022-09-21T15:34:16;1.83;;;0.93;;
7432;SDS011;32233;49.500;7.764;2022-09-21T15:36:43;0.70;;;0.70;;
7432;SDS011;32233;49.500;7.764;2022-09-21T15:44:36;0.70;;;0.70;;
7432;SDS011;32233;49.500;7.764;2022-09-21T15:47:03;0.63;;;0.63;;
7432;SDS011;32233;49.500;7.764;2022-09-21T15:49:31;1.27;;;0.60;;
7432;SDS011;32233;49.500;7.764;2022-09-21T15:54:33;1.23;;;0.70;;
7432;SDS011;32233;49.500;7.764;2022-09-21T15:57:00;2.50;;;0.80;;
7432;SDS011;32233;49.500;7.764;2022-09-21T15:59:33;1.00;;;0.80;;
7432;SDS011;32233;49.500;7.764;2022-09-21T16:02:00;1.13;;;0.70;;
7432;SDS011;32233;49.500;7.764;2022-09-21T16:04:35;1.13;;;0.70;;
7432;SDS011;32233;49.500;7.764;2022-09-21T16:07:05;0.80;;;0.60;;
7432;SDS011;32233;49.500;7.764;2022-09-21T16:09:42;1.47;;;0.67;;
7432;SDS011;32233;49.500;7.764;2022-09-21T16:12:26;0.60;;;0.60;;
7432;SDS011;32233;49.500;7.764;2022-09-21T16:14:53;2.67;;;0.63;;
7432;SDS011;32233;49.500;7.764;2022-09-21T16:17:34;0.87;;;0.70;;
7432;SDS011;32233;49.500;7.764;2022-09-21T16:20:17;1.90;;;0.90;;
7432;SDS011;32233;49.500;7.764;2022-09-21T16:22:46;0.57;;;0.57;;
7432;SDS011;32233;49.500;7.764;2022-09-21T16:27:52;4.57;;;2.67;;
7432;SDS011;32233;49.500;7.764;2022-09-21T16:30:36;1.10;;;0.80;;
7432;SDS011;32233;49.500;7.764;2022-09-21T16:35:49;1.43;;;1.00;;
7432;SDS011;32233;49.500;7.764;2022-09-21T16:38:16;1.77;;;0.90;;
7432;SDS011;32233;49.500;7.764;2022-09-21T16:40:42;1.33;;;0.90;;
7432;SDS011;32233;49.500;7.764;2022-09-21T16:43:11;1.17;;;0.80;;
7432;SDS011;32233;49.500;7.764;2022-09-21T16:45:38;0.93;;;0.90;;
7432;SDS011;32233;49.500;7.764;2022-09-21T16:48:04;0.90;;;0.90;;
7432;SDS011;32233;49.500;7.764;2022-09-21T16:50:33;1.57;;;1.17;;
7432;SDS011;32233;49.500;7.764;2022-09-21T16:52:59;1.30;;;1.20;;
7432;SDS011;32233;49.500;7.764;2022-09-21T16:55:25;1.40;;;1.30;;
7432;SDS011;32233;49.500;7.764;2022-09-21T16:57:54;1.43;;;0.83;;
7432;SDS011;32233;49.500;7.764;2022-09-21T17:00:21;1.13;;;1.00;;
7432;SDS011;32233;49.500;7.764;2022-09-21T17:02:48;1.17;;;1.07;;
7432;SDS011;32233;49.500;7.764;2022-09-21T17:05:14;2.63;;;1.30;;
7432;SDS011;32233;49.500;7.764;2022-09-21T17:07:54;2.50;;;1.30;;
7432;SDS011;32233;49.500;7.764;2022-09-21T17:10:21;1.87;;;1.00;;
7432;SDS011;32233;49.500;7.764;2022-09-21T17:12:52;1.20;;;0.97;;
7432;SDS011;32233;49.500;7.764;2022-09-21T17:15:19;1.93;;;0.90;;
7432;SDS011;32233;49.500;7.764;2022-09-21T17:17:46;0.90;;;0.90;;
7432;SDS011;32233;49.500;7.764;2022-09-21T17:23:01;2.87;;;2.27;;
7432;SDS011;32233;49.500;7.764;2022-09-21T17:25:31;2.73;;;2.53;;
7432;SDS011;32233;49.500;7.764;2022-09-21T17:27:58;2.97;;;2.77;;
7432;SDS011;32233;49.500;7.764;2022-09-21T17:30:25;2.67;;;2.47;;
7432;SDS011;32233;49.500;7.764;2022-09-21T17:32:51;5.63;;;3.83;;
7432;SDS011;32233;49.500;7.764;2022-09-21T17:37:47;6.87;;;4.83;;
7432;SDS011;32233;49.500;7.764;2022-09-21T17:40:13;4.20;;;3.80;;
7432;SDS011;32233;49.500;7.764;2022-09-21T17:42:41;4.13;;;3.60;;
7432;SDS011;32233;49.500;7.764;2022-09-21T17:47:53;6.87;;;3.50;;
7432;SDS011;32233;49.500;7.764;2022-09-21T17:50:21;3.80;;;2.93;;
7432;SDS011;32233;49.500;7.764;2022-09-21T17:52:49;6.33;;;2.80;;
7432;SDS011;32233;49.500;7.764;2022-09-21T17:55:34;4.50;;;3.07;;
7432;SDS011;32233;49.500;7.764;2022-09-21T17:58:06;5.90;;;3.70;;
7432;SDS011;32233;49.500;7.764;2022-09-21T18:03:19;5.77;;;3.30;;
7432;SDS011;32233;49.500;7.764;2022-09-21T18:05:48;5.00;;;3.50;;
7432;SDS011;32233;49.500;7.764;2022-09-21T18:08:16;3.97;;;3.57;;
7432;SDS011;32233;49.500;7.764;2022-09-21T18:10:45;3.67;;;3.27;;
7432;SDS011;32233;49.500;7.764;2022-09-21T18:13:18;3.70;;;3.40;;
7432;SDS011;32233;49.500;7.764;2022-09-21T18:15:52;4.10;;;3.70;;
7432;SDS011;32233;49.500;7.764;2022-09-21T18:26:08;4.17;;;2.37;;
7432;SDS011;32233;49.500;7.764;2022-09-21T18:31:28;2.47;;;2.27;;
7432;SDS011;32233;49.500;7.764;2022-09-21T18:39:40;6.57;;;5.70;;
7432;SDS011;32233;49.500;7.764;2022-09-21T18:45:29;5.80;;;5.30;;
7432;SDS011;32233;49.500;7.764;2022-09-21T18:53:22;4.67;;;4.27;;
7432;SDS011;32233;49.500;7.764;2022-09-21T18:55:50;3.63;;;3.33;;